EEKA

Details ICAO EEKA (KDL)
Name KARDLA
Region Estonia
Timezone Europe/Tallinn (UTC+3.0)
Plans Departing 13
Arriving 14
Stats Elevation 18 ft / 5 m (AMSL)
Location 58.990789° 22.830869°
Runways 1
Magnetic Variation 7.876° E
Sunrise 2018-06-25 01:17:58 UTC / 2018-06-25 04:17:58 Local
Sunset 2018-06-25 19:46:59 UTC / 2018-06-25 22:46:59 Local
Advertisement - Login to hide

Runways

ID Width Length Bearing (true) Bearing (mag) Surface Threshold Offset Overrun Length
14 98 ft / 30 m 4,977 ft / 1,517 m 147.42° 139.54° Asphalt 0 ft / 0 m 197 ft / 60 m
32 98 ft / 30 m 4,977 ft / 1,517 m 327.43° 319.55° Asphalt 788 ft / 240 m 262 ft / 80 m

Map

Weather


0- 5 10 15 20 25 30 35+ Temperature / ° C

Clouds and Precipitation
Forecast for 2018-06-25 12:00 UTC. Updated 38 minutes ago

Ground ~20,000 ft ~40,000 ft Winds

METAR

EEKA 250950Z 05004KT 8000 SCT002 BKN046 14/13 Q1011

TAF

Not found

Frequencies

Tower 130.30 MHz AFIS
Tower 130.30 MHz TWR
Warning: Do not use this data for real-world aviation or navigation. No guarantee of current accuracy is given.